AYMH

Mount Hagen Kagamuga Airport

Mount Hagen, Papua New Guinea
METAR AYMH 130900Z 05012KT 9999 SCT040 20/15 Q1017 RMK: BUILD UPS OVER THE RANGES
Observed Flight Rules
Dec-13 @ 09:00 UTC (2 hours ago) Visual Flight Rules
Wind Visibility Clouds
50° at 12 knots 10,000+ meters
  • Scattered at 4,000' AGL
Temperatures Readings
Current 20°C / 68°F
Dewpoint 15°C / 59°F
Humidity 73%
Altimeter 30.03" Hg
Pressure 1017 hPa
Elevation 1642
METAR AYMH 130900Z 05012KT 9999 SCT040 20/15 Q1017 RMK: BUILD UPS OVER THE RANGES
Observed Flight Rules
Dec-13 @ 09:00 UTC
(2 hours ago)
VFR
Wind Visibility
50° at 12 knots 10,000+ meters
Clouds
  • Scattered at 4,000' AGL
Temperature Dewpoint
20°C / 68°F 15°C / 59°F
Humidity Altimeter Pressure
73% 30.03" Hg 1017 hPa